Time;durP1;ratioP1;P1;durP2;ratioP2;P2;SDS_P1;SDS_P2;PMS_P1;PMS_P2;Temp;Humidity;BMP_temperature;BMP_pressure;BME280_temperature;BME280_humidity;BME280_pressure;Samples;Min_cycle;Max_cycle;Signal;HPM_P1;HPM_P2
2022/04/01 00:00:39;;;;;;;4.85;2.20;;;0.10;99.90;;;;;;4960971;29;20051;-80
2022/04/01 00:03:06;;;;;;;5.55;2.00;;;0.10;99.90;;;;;;4982408;28;20098;-80
2022/04/01 00:05:33;;;;;;;7.22;1.95;;;0.10;99.90;;;;;;4968146;29;20040;-80
2022/04/01 00:07:59;;;;;;;4.50;2.10;;;0.20;99.90;;;;;;4959518;29;20106;-80
2022/04/01 00:10:26;;;;;;;6.45;2.33;;;0.10;99.90;;;;;;4960082;29;20438;-80
2022/04/01 00:12:52;;;;;;;4.75;1.90;;;0.20;99.90;;;;;;4961862;28;20051;-80
2022/04/01 00:15:17;;;;;;;4.93;2.00;;;0.10;99.90;;;;;;4976297;28;20110;-80
2022/04/01 00:17:44;;;;;;;5.22;2.20;;;0.10;99.90;;;;;;4960129;29;20175;-80
2022/04/01 00:20:13;;;;;;;4.32;2.00;;;0.20;99.90;;;;;;4960295;29;20051;-80
2022/04/01 00:22:40;;;;;;;5.07;2.38;;;0.20;99.90;;;;;;4961232;29;20499;-80
2022/04/01 00:25:06;;;;;;;4.45;2.15;;;0.20;99.90;;;;;;4959635;29;20067;-80
2022/04/01 00:27:32;;;;;;;5.35;1.92;;;0.10;99.90;;;;;;4961443;29;20039;-80
2022/04/01 00:29:58;;;;;;;4.85;2.00;;;0.20;99.90;;;;;;4961559;28;20054;-80
2022/04/01 00:32:24;;;;;;;4.28;1.70;;;0.20;99.90;;;;;;4959369;29;20472;-80
2022/04/01 00:34:51;;;;;;;3.60;1.92;;;0.20;99.90;;;;;;4959625;29;20057;-80
2022/04/01 00:37:17;;;;;;;3.58;1.77;;;0.20;99.90;;;;;;4958917;29;20047;-80
2022/04/01 00:39:43;;;;;;;5.07;2.15;;;0.20;99.90;;;;;;4961099;29;20047;-80
2022/04/01 00:42:09;;;;;;;6.10;2.65;;;0.20;99.90;;;;;;4960336;29;20479;-80
2022/04/01 00:44:37;;;;;;;5.32;1.80;;;0.20;99.90;;;;;;4959241;29;20047;-80
2022/04/01 00:47:07;;;;;;;6.35;1.90;;;0.20;99.90;;;;;;4959441;29;20062;-80
2022/04/01 00:49:33;;;;;;;7.32;2.08;;;0.20;99.90;;;;;;4958777;29;20055;-80
2022/04/01 00:52:02;;;;;;;4.35;1.60;;;0.20;99.90;;;;;;4958978;28;20040;-80
2022/04/01 00:54:28;;;;;;;4.65;2.00;;;0.20;99.90;;;;;;4960470;29;20043;-80
2022/04/01 00:56:54;;;;;;;3.55;1.98;;;0.20;99.90;;;;;;4962002;28;20510;-80
2022/04/01 00:59:21;;;;;;;4.97;1.70;;;0.20;99.90;;;;;;4962032;29;20179;-80
2022/04/01 01:01:49;;;;;;;5.07;2.22;;;0.20;99.90;;;;;;4963568;29;20062;-80
2022/04/01 01:04:16;;;;;;;5.72;2.13;;;0.20;99.90;;;;;;4962938;28;20102;-80
2022/04/01 01:06:43;;;;;;;5.07;1.77;;;0.20;99.90;;;;;;4963559;29;20450;-80
2022/04/01 01:09:10;;;;;;;4.20;1.90;;;0.20;99.90;;;;;;4962218;29;20047;-80
2022/04/01 01:11:37;;;;;;;7.90;1.90;;;0.20;99.90;;;;;;4977741;28;20134;-80
2022/04/01 01:14:04;;;;;;;3.22;1.70;;;0.20;99.90;;;;;;4962752;29;20098;-80
2022/04/01 01:16:31;;;;;;;3.88;1.60;;;0.30;99.90;;;;;;4978431;28;20051;-80
2022/04/01 01:19:05;;;;;;;6.57;2.10;;;0.30;99.90;;;;;;4964248;28;20062;-80
2022/04/01 01:21:32;;;;;;;5.43;1.90;;;0.30;99.90;;;;;;4963427;29;20042;-80
2022/04/01 01:24:05;;;;;;;4.22;1.60;;;0.20;99.90;;;;;;4961878;29;20047;-80
2022/04/01 01:26:33;;;;;;;3.90;1.85;;;0.30;99.90;;;;;;4961942;28;20049;-80
2022/04/01 01:28:59;;;;;;;3.53;1.30;;;0.20;99.90;;;;;;4961727;29;20051;-80
2022/04/01 01:31:25;;;;;;;3.50;1.42;;;0.20;99.90;;;;;;4963610;29;20064;-80
2022/04/01 01:33:53;;;;;;;3.30;1.60;;;0.20;99.90;;;;;;4961714;28;20162;-80
2022/04/01 01:36:18;;;;;;;5.40;2.00;;;0.30;99.90;;;;;;4963927;29;20143;-80
2022/04/01 01:38:44;;;;;;;5.13;2.17;;;0.20;99.90;;;;;;4962030;28;20075;-80
2022/04/01 01:41:10;;;;;;;5.13;2.15;;;0.20;99.90;;;;;;4961580;29;20453;-80
2022/04/01 01:43:36;;;;;;;3.72;1.50;;;0.20;99.90;;;;;;4977723;28;20043;-80
2022/04/01 01:46:01;;;;;;;3.72;1.63;;;0.20;99.90;;;;;;4962727;29;20097;-80
2022/04/01 01:48:27;;;;;;;4.00;1.58;;;0.20;99.90;;;;;;4945342;29;20399;-80
2022/04/01 01:56:22;;;;;;;4.82;1.70;;;0.20;99.90;;;;;;4962795;28;20388;-80
2022/04/01 01:58:48;;;;;;;3.70;1.60;;;0.20;99.90;;;;;;4961260;29;20568;-80
2022/04/01 02:01:14;;;;;;;4.65;1.50;;;0.20;99.90;;;;;;4962639;29;20490;-80
2022/04/01 02:03:39;;;;;;;5.97;1.40;;;0.20;99.90;;;;;;4962801;29;20054;-80
2022/04/01 02:06:05;;;;;;;3.35;1.50;;;0.20;99.90;;;;;;4968936;29;20085;-80
2022/04/01 02:08:31;;;;;;;5.60;1.83;;;0.20;99.90;;;;;;4965228;28;20086;-80
2022/04/01 02:10:57;;;;;;;3.63;1.48;;;0.20;99.90;;;;;;4963702;29;20043;-80
2022/04/01 02:13:23;;;;;;;6.03;1.73;;;0.20;99.90;;;;;;4963924;28;20039;-80
2022/04/01 02:15:50;;;;;;;4.00;1.55;;;0.20;99.90;;;;;;4963820;29;20513;-80
2022/04/01 02:18:16;;;;;;;4.75;1.83;;;0.20;99.90;;;;;;4962911;28;20501;-80
2022/04/01 02:20:42;;;;;;;3.25;1.85;;;0.20;99.90;;;;;;4963138;29;20075;-80
2022/04/01 02:23:09;;;;;;;4.72;1.88;;;0.20;99.90;;;;;;4961915;29;20078;-80
2022/04/01 02:25:36;;;;;;;5.05;1.90;;;0.10;99.90;;;;;;4962956;29;20051;-80
2022/04/01 02:28:04;;;;;;;4.47;1.50;;;0.10;99.90;;;;;;4961722;28;20047;-80
2022/04/01 02:30:29;;;;;;;6.18;1.80;;;0.20;99.90;;;;;;4968409;23;20376;-81
2022/04/01 02:32:55;;;;;;;5.88;1.75;;;0.10;99.90;;;;;;4941670;23;20124;-80
2022/04/01 02:35:28;;;;;;;5.03;1.83;;;0.40;99.90;;;;;;4951731;23;20047;-80
2022/04/01 02:37:55;;;;;;;4.00;1.80;;;-0.10;99.90;;;;;;4962581;23;20086;-80
2022/04/01 02:40:22;;;;;;;3.80;1.52;;;0.10;99.90;;;;;;4955000;23;20055;-80
2022/04/01 02:42:50;;;;;;;6.47;1.95;;;0.20;99.90;;;;;;4969606;23;21425;-80
2022/04/01 02:45:16;;;;;;;6.70;1.70;;;0.10;99.90;;;;;;4970515;23;20050;-81
2022/04/01 02:47:42;;;;;;;5.82;1.77;;;0.10;99.90;;;;;;4970407;23;20078;-80
2022/04/01 02:50:08;;;;;;;5.10;1.85;;;0.10;99.90;;;;;;4986979;23;20051;-80
2022/04/01 02:53:07;;;;;;;5.55;1.70;;;0.10;99.90;;;;;;4970850;23;20059;-80
2022/04/01 02:55:32;;;;;;;4.40;1.80;;;0.10;99.90;;;;;;4992256;23;20105;-81
2022/04/01 02:57:59;;;;;;;4.30;1.60;;;0.10;99.90;;;;;;4987849;23;20853;-80
2022/04/01 03:00:26;;;;;;;3.10;1.33;;;0.00;99.90;;;;;;4980186;23;20042;-80
2022/04/01 03:02:51;;;;;;;6.13;1.70;;;-0.10;99.90;;;;;;4986862;23;20050;-80
2022/04/01 03:05:18;;;;;;;4.55;1.83;;;0.40;99.90;;;;;;4975025;23;20053;-80
2022/04/01 03:07:44;;;;;;;3.90;1.60;;;0.20;99.90;;;;;;4965938;28;20079;-80
2022/04/01 03:10:11;;;;;;;7.28;2.40;;;0.10;99.90;;;;;;4974838;23;20054;-80
2022/04/01 03:12:37;;;;;;;4.30;1.85;;;0.20;99.90;;;;;;4992668;23;20132;-81
2022/04/01 03:15:06;;;;;;;4.30;1.70;;;0.20;99.90;;;;;;4985414;23;20062;-80
2022/04/01 03:17:32;;;;;;;4.00;1.83;;;0.10;99.90;;;;;;4978578;23;20153;-81
2022/04/01 03:20:03;;;;;;;4.75;1.80;;;0.20;99.90;;;;;;4969354;23;20487;-80
2022/04/01 03:22:31;;;;;;;4.28;1.55;;;-0.10;99.90;;;;;;4980599;23;20063;-81
2022/04/01 03:24:57;;;;;;;5.65;1.85;;;0.10;99.90;;;;;;4966876;23;20050;-80
2022/04/01 03:27:23;;;;;;;5.72;2.38;;;0.10;99.90;;;;;;4980461;23;20120;-81
2022/04/01 03:29:49;;;;;;;5.43;1.85;;;0.10;99.90;;;;;;4967155;23;20097;-80
2022/04/01 03:32:15;;;;;;;4.88;1.77;;;0.10;99.90;;;;;;4970598;23;20066;-80
2022/04/01 03:34:41;;;;;;;4.10;1.80;;;0.10;99.90;;;;;;4970870;23;20074;-80
2022/04/01 03:37:08;;;;;;;5.43;1.70;;;0.20;99.90;;;;;;4973918;23;20129;-80
2022/04/01 03:39:35;;;;;;;6.20;1.75;;;0.10;99.90;;;;;;4968201;23;20078;-80
2022/04/01 03:42:01;;;;;;;5.85;1.90;;;0.10;99.90;;;;;;4954968;23;20054;-80
2022/04/01 03:44:29;;;;;;;5.43;2.25;;;0.20;99.90;;;;;;4962761;23;20113;-80
2022/04/01 03:47:03;;;;;;;5.57;1.92;;;0.10;99.90;;;;;;4940863;23;20130;-80
2022/04/01 03:49:32;;;;;;;6.60;2.10;;;0.20;99.90;;;;;;4950272;23;20055;-81
2022/04/01 03:51:59;;;;;;;7.45;1.90;;;0.20;99.90;;;;;;4951806;23;20150;-80
2022/04/01 03:54:33;;;;;;;5.53;1.92;;;0.20;99.90;;;;;;4943001;23;20082;31
2022/04/01 03:57:01;;;;;;;4.50;1.80;;;0.20;99.90;;;;;;4954847;23;20632;-80
2022/04/01 03:59:40;;;;;;;5.00;1.83;;;0.10;99.90;;;;;;4967495;23;20061;-81
2022/04/01 04:02:12;;;;;;;4.80;1.83;;;0.10;99.90;;;;;;4913709;23;20058;-80
2022/04/01 04:04:39;;;;;;;5.13;1.90;;;0.20;99.90;;;;;;4959557;23;20059;-80
2022/04/01 04:07:10;;;;;;;3.90;1.48;;;0.20;99.90;;;;;;4910648;23;1106663;-80
2022/04/01 04:09:40;;;;;;;5.47;1.70;;;0.20;99.90;;;;;;4961340;23;20152;-81
2022/04/01 04:12:07;;;;;;;4.35;1.90;;;0.20;99.90;;;;;;4955313;23;20055;-80
2022/04/01 04:14:34;;;;;;;4.32;1.50;;;0.30;99.90;;;;;;4948594;23;20067;-81
2022/04/01 04:17:07;;;;;;;5.93;1.40;;;0.30;99.90;;;;;;4951783;23;20082;-80
2022/04/01 04:19:39;;;;;;;4.75;1.63;;;0.30;99.90;;;;;;4964230;23;20057;-81
2022/04/01 04:22:11;;;;;;;6.03;1.83;;;0.20;99.90;;;;;;4949075;23;20054;-80
2022/04/01 04:24:53;;;;;;;6.07;1.80;;;-0.50;99.90;;;;;;4960193;23;20122;-81
2022/04/01 04:27:29;;;;;;;4.07;1.80;;;0.30;99.90;;;;;;4952203;23;20154;-80
2022/04/01 04:30:08;;;;;;;4.10;1.48;;;0.30;99.90;;;;;;4974653;23;20384;-80
2022/04/01 04:32:43;;;;;;;5.22;2.00;;;0.30;99.90;;;;;;4945506;23;20114;-81
2022/04/01 04:35:11;;;;;;;6.53;1.93;;;0.30;99.90;;;;;;4965073;23;20055;-80
2022/04/01 04:37:44;;;;;;;3.92;1.50;;;0.30;99.90;;;;;;4954969;23;20106;-81
2022/04/01 04:40:12;;;;;;;3.20;1.50;;;0.30;99.90;;;;;;4958130;23;20050;-81
2022/04/01 04:42:47;;;;;;;5.32;1.75;;;0.30;99.90;;;;;;4959841;23;20100;-81
2022/04/01 04:45:18;;;;;;;2.97;1.23;;;0.40;99.90;;;;;;4958218;23;20054;-81
2022/04/01 04:47:46;;;;;;;4.53;1.50;;;0.40;99.90;;;;;;4967377;23;20147;-81
2022/04/01 04:50:12;;;;;;;3.80;1.52;;;0.40;99.90;;;;;;4950788;23;20071;-81
2022/04/01 04:52:41;;;;;;;7.03;1.63;;;0.40;99.90;;;;;;4956762;23;20406;-81
2022/04/01 04:55:18;;;;;;;5.95;1.50;;;0.40;99.90;;;;;;4975810;23;20063;-81
2022/04/01 04:57:46;;;;;;;3.17;1.30;;;0.40;99.90;;;;;;4934818;23;20055;-81
2022/04/01 05:00:13;;;;;;;4.75;1.20;;;0.40;99.90;;;;;;4963405;23;20105;-81
2022/04/01 05:02:53;;;;;;;4.80;1.35;;;0.40;99.90;;;;;;4974590;23;20034;-81
2022/04/01 05:05:56;;;;;;;6.20;1.67;;;0.40;99.90;;;;;;4959277;23;20406;-81
2022/04/01 05:08:46;;;;;;;4.45;1.73;;;0.40;99.90;;;;;;4963542;23;20067;-81
2022/04/01 05:11:46;;;;;;;3.03;1.48;;;0.50;99.90;;;;;;4956525;23;20055;-81
2022/04/01 05:14:29;;;;;;;5.40;1.80;;;0.50;99.90;;;;;;4933958;23;20110;-81
2022/04/01 05:17:07;;;;;;;5.70;1.60;;;0.50;99.90;;;;;;4940882;23;20061;-81
2022/04/01 05:19:36;;;;;;;3.47;1.50;;;0.40;99.90;;;;;;4969270;23;20061;-81
2022/04/01 05:22:08;;;;;;;8.50;1.70;;;0.30;99.90;;;;;;4957155;23;20113;-81
2022/04/01 05:24:37;;;;;;;5.78;1.60;;;0.50;99.90;;;;;;4990873;23;20050;-81
2022/04/01 05:27:05;;;;;;;4.15;1.52;;;0.50;99.90;;;;;;4979898;23;20050;-81
2022/04/01 05:29:42;;;;;;;3.80;1.60;;;0.80;99.90;;;;;;4974347;23;20529;-81
2022/04/01 05:32:13;;;;;;;3.85;1.52;;;0.60;99.90;;;;;;4967865;23;20051;-81
2022/04/01 05:34:49;;;;;;;4.43;1.40;;;0.30;99.90;;;;;;4998865;23;20074;-81
2022/04/01 05:37:17;;;;;;;5.60;1.67;;;0.50;99.90;;;;;;4981376;23;20063;-81
2022/04/01 05:39:48;;;;;;;4.53;1.30;;;0.50;99.90;;;;;;4973333;23;20506;-81
2022/04/01 05:42:15;;;;;;;5.55;1.63;;;1.30;99.90;;;;;;4965239;28;20055;-81
2022/04/01 05:44:44;;;;;;;5.18;1.67;;;1.20;99.90;;;;;;4979118;23;20090;-81
2022/04/01 05:47:10;;;;;;;7.45;1.70;;;1.60;99.90;;;;;;4975798;23;20058;-81
2022/04/01 05:49:41;;;;;;;4.28;1.52;;;2.30;99.90;;;;;;4967357;23;20084;-82
2022/04/01 05:52:11;;;;;;;5.18;1.55;;;0.50;99.90;;;;;;4965550;23;20150;-81
2022/04/01 05:54:40;;;;;;;4.05;1.48;;;0.50;99.90;;;;;;4971148;23;20078;-81
2022/04/01 05:57:08;;;;;;;6.10;1.40;;;0.70;99.90;;;;;;4965769;28;20441;-81
2022/04/01 05:59:34;;;;;;;4.28;1.45;;;0.70;99.90;;;;;;4979721;23;20051;-81
2022/04/01 06:02:17;;;;;;;5.15;1.50;;;1.80;99.90;;;;;;4975647;23;20066;-81
2022/04/01 06:04:58;;;;;;;4.03;1.23;;;0.80;99.90;;;;;;4977713;23;21126;-81
2022/04/01 06:07:35;;;;;;;3.40;1.48;;;0.80;99.90;;;;;;4971561;23;20065;-81
2022/04/01 06:10:09;;;;;;;3.85;1.58;;;0.60;99.90;;;;;;4934767;23;20062;-81
2022/04/01 06:12:53;;;;;;;4.53;1.70;;;0.80;99.90;;;;;;4952528;23;20059;-81
2022/04/01 06:15:47;;;;;;;3.85;1.40;;;0.80;99.90;;;;;;4945281;23;20043;-81
2022/04/01 06:18:38;;;;;;;6.97;1.38;;;0.90;99.90;;;;;;4947964;23;20070;-81
2022/04/01 06:21:04;;;;;;;3.97;1.60;;;0.90;99.90;;;;;;4963124;23;20047;-81
2022/04/01 06:26:00;;;;;;;5.40;1.58;;;0.90;99.90;;;;;;4967809;23;20051;-81
2022/04/01 06:28:36;;;;;;;4.45;1.50;;;2.30;99.90;;;;;;4970281;23;20062;-81
2022/04/01 06:31:06;;;;;;;3.78;1.40;;;0.90;99.90;;;;;;4935267;23;20054;-81
2022/04/01 06:34:00;;;;;;;6.50;1.73;;;1.00;99.90;;;;;;4950825;23;20087;-82
2022/04/01 06:36:35;;;;;;;3.28;1.20;;;1.00;99.90;;;;;;4954311;23;20057;-81
2022/04/01 06:39:06;;;;;;;3.72;1.60;;;1.00;99.90;;;;;;4942278;23;20151;-81
2022/04/01 06:41:46;;;;;;;6.25;1.60;;;1.10;99.90;;;;;;4950930;23;20058;-82
2022/04/01 06:44:13;;;;;;;4.25;1.30;;;1.20;99.90;;;;;;4935631;23;20063;-81
2022/04/01 06:46:39;;;;;;;4.40;1.50;;;1.10;99.90;;;;;;4942830;23;20328;-81
2022/04/01 06:49:08;;;;;;;4.03;1.52;;;1.90;99.90;;;;;;4935677;23;20549;-81
2022/04/01 06:51:39;;;;;;;3.42;1.40;;;2.50;99.90;;;;;;4949219;23;20063;-82
2022/04/01 06:54:06;;;;;;;4.85;1.48;;;1.20;99.90;;;;;;4950440;23;20066;-81
2022/04/01 06:56:31;;;;;;;5.80;1.50;;;1.30;99.90;;;;;;4942717;23;20078;-81
2022/04/01 06:58:57;;;;;;;5.32;1.70;;;2.00;99.90;;;;;;4936077;23;20043;-81
2022/04/01 07:01:29;;;;;;;6.07;1.60;;;2.20;99.90;;;;;;4941709;23;20136;-81
2022/04/01 07:03:55;;;;;;;4.22;1.63;;;1.30;99.90;;;;;;4935031;23;20062;-81
2022/04/01 07:06:28;;;;;;;4.50;1.50;;;1.40;99.90;;;;;;4956221;23;20059;-81
2022/04/01 07:08:54;;;;;;;4.40;1.13;;;1.40;99.90;;;;;;4981499;23;20055;-81
2022/04/01 07:11:26;;;;;;;4.93;1.48;;;1.40;99.90;;;;;;4957268;23;20058;-82
2022/04/01 07:13:53;;;;;;;6.13;1.50;;;1.40;99.90;;;;;;4952347;23;20054;-81
2022/04/01 07:16:19;;;;;;;4.60;1.90;;;1.70;99.90;;;;;;4960618;23;20102;-81
2022/04/01 07:18:45;;;;;;;4.15;1.40;;;1.50;99.90;;;;;;4961925;23;20403;-81
2022/04/01 07:21:12;;;;;;;3.92;1.40;;;1.80;99.90;;;;;;4960532;23;20051;-81
2022/04/01 07:23:38;;;;;;;3.47;1.63;;;1.60;99.90;;;;;;4955285;23;20458;-80
2022/04/01 07:26:04;;;;;;;6.85;1.63;;;2.60;99.90;;;;;;4974417;23;20059;-81
2022/04/01 07:28:30;;;;;;;5.03;1.40;;;1.70;99.90;;;;;;4954455;23;20054;-81
2022/04/01 07:30:56;;;;;;;5.20;1.67;;;1.80;99.90;;;;;;4975153;23;20075;-81
2022/04/01 07:33:28;;;;;;;3.08;1.27;;;1.80;99.90;;;;;;4964352;23;20059;31
2022/04/01 07:35:54;;;;;;;3.15;1.60;;;1.80;99.90;;;;;;4944619;23;20107;-81
2022/04/01 07:38:20;;;;;;;3.40;1.30;;;1.80;99.90;;;;;;4947792;28;20082;-81
2022/04/01 07:40:46;;;;;;;3.25;1.17;;;1.70;99.90;;;;;;4960234;23;20054;-82
2022/04/01 07:43:12;;;;;;;3.60;1.08;;;1.90;99.90;;;;;;4968957;23;20055;-82
2022/04/01 07:45:37;;;;;;;4.05;1.17;;;1.80;99.90;;;;;;4969571;23;20051;-82
2022/04/01 07:48:04;;;;;;;2.35;0.98;;;3.00;99.90;;;;;;4948438;28;20054;-81
2022/04/01 07:50:29;;;;;;;3.35;0.98;;;2.00;99.90;;;;;;4969105;23;20054;-82
2022/04/01 07:52:55;;;;;;;2.70;0.90;;;1.90;99.90;;;;;;4968626;23;21226;-82
2022/04/01 07:55:22;;;;;;;3.05;1.20;;;2.00;99.90;;;;;;4970651;23;20071;-82
2022/04/01 07:57:49;;;;;;;3.78;1.10;;;2.50;99.90;;;;;;4971056;23;20056;-81
2022/04/01 08:00:16;;;;;;;2.60;1.27;;;2.00;99.90;;;;;;4926064;29;20138;-81
2022/04/01 08:02:47;;;;;;;2.20;1.00;;;2.10;99.90;;;;;;4951717;23;20062;-82
2022/04/01 08:05:13;;;;;;;3.65;1.67;;;2.20;99.90;;;;;;4953287;23;20048;-81
2022/04/01 08:07:39;;;;;;;2.53;1.08;;;3.50;99.90;;;;;;4983127;23;20055;-82
2022/04/01 08:10:06;;;;;;;5.57;1.10;;;2.50;99.90;;;;;;4973431;23;20141;-81
2022/04/01 08:12:35;;;;;;;3.67;1.48;;;2.40;99.90;;;;;;4991271;23;20509;-82
2022/04/01 08:15:05;;;;;;;4.05;1.20;;;2.30;99.90;;;;;;4987689;23;20051;-81
2022/04/01 08:17:30;;;;;;;3.50;1.20;;;2.40;99.90;;;;;;4977495;23;20063;-82
2022/04/01 08:19:56;;;;;;;3.35;1.00;;;3.90;99.90;;;;;;4970319;23;20055;-81
2022/04/01 08:22:22;;;;;;;2.15;1.10;;;2.30;99.90;;;;;;4972486;23;20050;-82
2022/04/01 08:24:57;;;;;;;4.35;1.20;;;2.50;99.90;;;;;;4948535;28;20073;-82
2022/04/01 08:27:23;;;;;;;;;;;3.80;99.90;;;;;;4972778;23;20058;-82
2022/04/01 08:29:49;;;;;;;2.92;1.10;;;2.40;99.90;;;;;;4984645;23;19922;-81
2022/04/01 08:32:15;;;;;;;6.05;1.35;;;2.50;99.90;;;;;;4973244;23;20055;-81
2022/04/01 08:34:41;;;;;;;4.65;1.38;;;2.50;99.90;;;;;;4976203;23;20051;-82
2022/04/01 08:37:07;;;;;;;4.82;1.00;;;3.80;99.90;;;;;;4964540;28;20529;-81
2022/04/01 08:39:34;;;;;;;2.78;1.20;;;2.60;99.90;;;;;;4963474;28;20047;-82
2022/04/01 08:42:03;;;;;;;3.03;1.30;;;2.60;99.90;;;;;;4963397;28;20047;-82
2022/04/01 08:44:28;;;;;;;3.15;1.08;;;2.70;99.90;;;;;;4963602;28;20083;-82
2022/04/01 08:46:54;;;;;;;4.38;1.30;;;2.50;99.90;;;;;;4979661;28;20047;-82
2022/04/01 08:49:20;;;;;;;5.00;1.40;;;2.80;99.90;;;;;;4964137;28;20066;-82
2022/04/01 08:51:46;;;;;;;5.78;1.50;;;2.70;99.90;;;;;;4964765;28;20058;-82
2022/04/01 08:54:12;;;;;;;3.67;1.52;;;2.80;99.90;;;;;;4965219;28;20039;-82
2022/04/01 08:56:38;;;;;;;3.35;1.85;;;3.60;99.90;;;;;;4981071;28;20089;-82
2022/04/01 08:59:03;;;;;;;4.13;1.70;;;2.80;99.90;;;;;;4965127;28;20051;-82
2022/04/01 09:01:40;;;;;;;5.85;1.73;;;2.80;99.90;;;;;;4982293;28;20055;-82
2022/04/01 09:04:21;;;;;;;4.10;1.80;;;2.90;99.90;;;;;;4981228;28;20439;-82
2022/04/01 09:06:47;;;;;;;4.60;1.70;;;3.00;99.90;;;;;;4982869;28;20046;-83
2022/04/01 09:09:28;;;;;;;3.30;1.67;;;3.00;99.90;;;;;;4980852;28;20043;-82
2022/04/01 09:12:05;;;;;;;5.10;1.73;;;3.20;99.90;;;;;;4964707;28;20081;-82
2022/04/01 09:14:31;;;;;;;3.05;1.45;;;3.20;99.90;;;;;;4982713;28;20107;-81
2022/04/01 09:16:57;;;;;;;4.15;1.80;;;3.10;99.90;;;;;;4983454;28;20043;-82
2022/04/01 09:19:31;;;;;;;3.67;1.50;;;3.10;99.90;;;;;;4983716;28;20051;-82
2022/04/01 09:21:57;;;;;;;4.32;1.58;;;3.20;99.90;;;;;;4967216;28;20054;-82
2022/04/01 09:24:22;;;;;;;4.07;1.65;;;3.30;99.90;;;;;;4967906;28;20047;-82
2022/04/01 09:26:54;;;;;;;5.43;1.95;;;2.50;99.90;;;;;;4969355;28;20125;-82
2022/04/01 09:29:19;;;;;;;4.63;1.77;;;3.50;99.90;;;;;;4985804;28;20089;-83
2022/04/01 09:31:51;;;;;;;4.35;1.90;;;3.40;99.90;;;;;;4985299;28;20047;-82
2022/04/01 09:34:17;;;;;;;4.35;1.92;;;4.50;99.90;;;;;;4986299;28;20054;-82
2022/04/01 09:36:44;;;;;;;3.83;1.70;;;3.60;99.90;;;;;;4984402;28;20139;-82
2022/04/01 09:39:18;;;;;;;3.97;1.65;;;3.40;99.90;;;;;;4985024;28;20050;-82
2022/04/01 09:41:59;;;;;;;3.55;1.80;;;3.50;99.90;;;;;;4992748;28;20043;-82
2022/04/01 09:44:29;;;;;;;5.00;2.00;;;3.50;99.90;;;;;;4994096;28;20047;-82
2022/04/01 09:47:01;;;;;;;6.38;2.15;;;3.60;99.90;;;;;;4987160;28;20039;-82
2022/04/01 09:49:39;;;;;;;3.70;2.05;;;3.70;99.90;;;;;;4984844;28;20096;-82
2022/04/01 09:52:11;;;;;;;4.60;2.20;;;3.70;99.90;;;;;;4983626;28;20047;-82
2022/04/01 09:54:51;;;;;;;4.90;1.88;;;4.80;99.90;;;;;;4983418;28;20058;-82
2022/04/01 09:57:19;;;;;;;4.00;2.00;;;3.70;99.90;;;;;;4983400;28;20083;-82
2022/04/01 09:59:46;;;;;;;4.28;2.00;;;4.00;99.90;;;;;;4967286;28;20043;-82
2022/04/01 10:02:12;;;;;;;5.15;1.90;;;4.40;99.90;;;;;;4983350;28;20046;-82
2022/04/01 10:04:38;;;;;;;4.28;1.85;;;5.10;99.90;;;;;;4967343;28;20500;-82
2022/04/01 10:07:04;;;;;;;4.45;1.80;;;4.00;99.90;;;;;;4983032;28;20047;-82
2022/04/01 10:09:30;;;;;;;5.03;2.10;;;4.00;99.90;;;;;;4966991;28;20039;-82
2022/04/01 10:12:00;;;;;;;6.63;2.00;;;4.00;99.90;;;;;;4984234;28;20438;-82
2022/04/01 10:14:26;;;;;;;4.35;2.13;;;3.90;99.90;;;;;;4966961;28;20054;-82
2022/04/01 10:16:55;;;;;;;5.00;1.90;;;4.20;99.90;;;;;;4966860;28;20049;-82
2022/04/01 10:19:34;;;;;;;5.78;2.10;;;3.90;99.90;;;;;;4984266;28;20050;-82
2022/04/01 10:22:01;;;;;;;4.45;2.13;;;4.00;99.90;;;;;;4967424;28;20054;-82
2022/04/01 10:24:56;;;;;;;5.07;1.92;;;4.70;99.90;;;;;;4983584;28;20053;-82
2022/04/01 10:27:52;;;;;;;4.30;2.00;;;4.10;99.90;;;;;;4971200;28;20050;-82
2022/04/01 10:30:23;;;;;;;3.75;2.08;;;4.20;99.90;;;;;;4968597;28;20039;-82
2022/04/01 10:32:49;;;;;;;3.47;1.83;;;4.10;99.90;;;;;;4983795;28;20125;-82
2022/04/01 10:35:30;;;;;;;4.88;1.95;;;4.10;99.90;;;;;;4967091;28;20057;-82
2022/04/01 10:38:19;;;;;;;3.97;2.13;;;4.30;99.90;;;;;;4967581;28;20046;-82
2022/04/01 10:40:51;;;;;;;3.78;1.88;;;4.30;99.90;;;;;;4927792;29;20051;-82
2022/04/01 10:43:26;;;;;;;3.83;2.00;;;4.50;99.90;;;;;;4911701;29;20063;-82
2022/04/01 10:46:07;;;;;;;4.63;1.80;;;4.40;99.90;;;;;;4944576;29;20172;-82
2022/04/01 10:51:44;;;;;;;4.30;1.80;;;3.80;99.90;;;;;;4943137;29;20127;-82
2022/04/01 10:54:12;;;;;;;4.05;2.10;;;4.80;99.90;;;;;;4910872;29;20086;-82
2022/04/01 10:56:38;;;;;;;4.60;1.92;;;6.00;99.90;;;;;;4926749;29;20056;-82
2022/04/01 10:59:10;;;;;;;7.50;2.60;;;5.40;99.90;;;;;;4911105;29;20142;-82
2022/04/01 11:01:56;;;;;;;4.47;1.70;;;6.40;99.90;;;;;;4943129;29;20051;-82
2022/04/01 11:04:21;;;;;;;4.45;2.22;;;5.30;99.90;;;;;;4942291;29;20064;-82
2022/04/01 11:07:01;;;;;;;5.47;2.10;;;5.30;99.90;;;;;;4926436;29;20044;-82
2022/04/01 11:09:46;;;;;;;3.90;2.00;;;5.30;99.90;;;;;;4926654;29;20059;-82
2022/04/01 11:12:23;;;;;;;5.82;2.03;;;5.30;99.90;;;;;;4910548;29;20058;-82
2022/04/01 11:15:17;;;;;;;3.38;1.85;;;5.30;99.90;;;;;;4910734;29;20052;-82
2022/04/01 11:17:47;;;;;;;3.00;1.83;;;5.10;99.90;;;;;;4950902;28;20062;-82
2022/04/01 11:20:19;;;;;;;4.63;1.83;;;5.20;99.90;;;;;;4965784;28;20078;-82
2022/04/01 11:22:54;;;;;;;4.40;2.00;;;5.30;99.90;;;;;;4986932;28;20062;-82
2022/04/01 11:25:25;;;;;;;5.53;2.30;;;5.40;99.90;;;;;;4968726;28;20134;-82
2022/04/01 11:27:57;;;;;;;5.00;1.80;;;5.20;99.90;;;;;;4982650;28;20093;-82
2022/04/01 11:30:25;;;;;;;3.88;1.55;;;4.90;99.90;;;;;;4967054;28;20066;-83
2022/04/01 11:33:18;;;;;;;4.50;1.70;;;5.90;99.90;;;;;;4982307;28;20087;-82
2022/04/01 11:35:53;;;;;;;5.63;1.70;;;5.90;99.90;;;;;;4980073;28;20399;-82
2022/04/01 11:38:21;;;;;;;4.57;1.75;;;5.30;99.90;;;;;;4966012;28;20138;-82
2022/04/01 11:40:51;;;;;;;4.25;1.70;;;7.10;99.90;;;;;;4981673;28;20050;-82
2022/04/01 11:43:18;;;;;;;2.65;1.60;;;6.00;99.90;;;;;;4964790;28;20439;-82
2022/04/01 11:45:59;;;;;;;2.55;1.30;;;4.80;99.90;;;;;;4982129;28;20046;-82
2022/04/01 11:48:35;;;;;;;3.33;1.63;;;5.40;99.90;;;;;;4981690;28;20047;-82
2022/04/01 11:51:03;;;;;;;3.15;1.40;;;5.40;99.90;;;;;;4965982;28;20057;-82
2022/04/01 11:53:38;;;;;;;4.00;1.30;;;5.20;99.90;;;;;;4981361;28;20070;-82
2022/04/01 11:56:09;;;;;;;4.73;1.33;;;6.00;99.90;;;;;;4966173;28;20066;-82
2022/04/01 11:58:56;;;;;;;3.83;1.27;;;4.70;99.90;;;;;;4966302;28;20043;-81
2022/04/01 12:01:33;;;;;;;3.72;1.70;;;6.40;99.90;;;;;;4983125;28;20126;-82
2022/04/01 12:04:08;;;;;;;2.90;1.40;;;5.10;99.90;;;;;;4982514;28;20487;-82
2022/04/01 12:09:27;;;;;;;3.67;1.50;;;6.30;99.90;;;;;;4981984;28;20059;-82
2022/04/01 12:11:52;;;;;;;3.45;1.25;;;5.80;99.90;;;;;;4982268;28;20066;-82
2022/04/01 12:14:24;;;;;;;4.15;1.30;;;5.60;99.90;;;;;;4982348;28;20051;-82
2022/04/01 12:16:50;;;;;;;4.03;1.77;;;5.70;99.90;;;;;;4965848;28;20126;-82
2022/04/01 12:19:20;;;;;;;4.07;1.77;;;6.20;99.90;;;;;;4983385;28;20055;-82
2022/04/01 12:22:04;;;;;;;3.47;1.42;;;5.80;99.90;;;;;;4966265;28;20082;-82
2022/04/01 12:24:33;;;;;;;2.35;1.00;;;5.90;99.90;;;;;;4983137;28;20043;-82
2022/04/01 12:26:59;;;;;;;2.60;1.20;;;5.90;99.90;;;;;;4965917;28;20055;-82
2022/04/01 12:29:27;;;;;;;3.33;1.23;;;5.90;99.90;;;;;;4982301;28;20050;-82
2022/04/01 12:31:58;;;;;;;3.47;1.10;;;5.90;99.90;;;;;;4983994;28;20038;-82
2022/04/01 12:34:25;;;;;;;5.38;1.05;;;6.20;99.90;;;;;;4981946;28;20050;-82
2022/04/01 12:37:14;;;;;;;2.63;1.00;;;6.40;99.90;;;;;;4964774;28;20059;-82
2022/04/01 12:39:44;;;;;;;3.53;1.13;;;6.70;99.90;;;;;;4982377;28;20062;-82
2022/04/01 12:42:11;;;;;;;2.70;1.25;;;7.40;99.90;;;;;;4967794;28;20050;-82
2022/04/01 12:44:40;;;;;;;2.70;1.15;;;6.90;99.90;;;;;;4981924;28;20430;-82
2022/04/01 12:47:07;;;;;;;3.13;1.00;;;6.90;99.90;;;;;;4965710;28;20078;-83
2022/04/01 12:49:34;;;;;;;3.47;1.42;;;6.70;99.90;;;;;;4982820;28;20422;-82
2022/04/01 12:52:02;;;;;;;5.10;1.20;;;7.10;99.90;;;;;;4983591;28;20098;-82
2022/04/01 12:54:38;;;;;;;3.17;1.13;;;6.70;99.90;;;;;;4985266;28;20486;-82
2022/04/01 12:57:10;;;;;;;6.00;1.30;;;6.70;99.90;;;;;;4985922;28;20039;-82
2022/04/01 12:59:45;;;;;;;2.70;1.20;;;6.80;99.90;;;;;;4988387;28;20043;-82
2022/04/01 13:02:19;;;;;;;5.38;1.30;;;7.00;99.90;;;;;;4968666;28;20082;-82
2022/04/01 13:04:53;;;;;;;2.78;1.23;;;7.10;99.90;;;;;;4986546;28;20126;-82
2022/04/01 13:07:33;;;;;;;4.05;1.20;;;7.30;99.90;;;;;;4986019;28;20051;-82
2022/04/01 13:10:00;;;;;;;4.07;1.30;;;7.40;99.90;;;;;;4986763;28;20121;-82
2022/04/01 13:12:31;;;;;;;2.97;1.20;;;7.90;99.90;;;;;;4992158;28;20039;-82
2022/04/01 13:15:09;;;;;;;3.75;1.20;;;6.90;99.90;;;;;;4980902;28;20046;-81
2022/04/01 13:17:50;;;;;;;4.22;1.30;;;6.70;99.90;;;;;;4977588;28;20050;-82
2022/04/01 13:20:21;;;;;;;5.65;1.65;;;6.60;99.90;;;;;;4999679;23;20059;-82
2022/04/01 13:22:46;;;;;;;3.42;1.40;;;6.70;99.90;;;;;;4978587;28;20054;-82
2022/04/01 13:25:12;;;;;;;2.65;1.30;;;6.50;99.90;;;;;;4976287;28;20047;-81
2022/04/01 13:27:39;;;;;;;3.28;1.40;;;6.60;99.90;;;;;;4973092;28;20485;-82